Time;durP1;ratioP1;P1;durP2;ratioP2;P2;SDS_P1;SDS_P2;PMS_P1;PMS_P2;Temp;Humidity;BMP_temperature;BMP_pressure;BME280_temperature;BME280_humidity;BME280_pressure;Samples;Min_cycle;Max_cycle;Signal;HPM_P1;HPM_P2
2022/11/16 00:00:23;;;;;;;1.42;1.15;;;;;;;21.14;42.92;99136.94;4510405;28;20032;-62
2022/11/16 00:02:33;;;;;;;1.60;1.10;;;;;;;21.06;43.13;99127.50;4509638;28;20041;-63
2022/11/16 00:04:44;;;;;;;1.83;1.25;;;;;;;20.94;42.94;99118.41;4508690;28;20042;-62
2022/11/16 00:06:54;;;;;;;1.63;1.27;;;;;;;20.97;42.88;99129.94;4517067;28;20200;-62
2022/11/16 00:09:27;;;;;;;1.65;1.30;;;;;;;20.91;43.30;99120.06;4509772;28;20045;-62
2022/11/16 00:11:38;;;;;;;1.40;1.30;;;;;;;20.92;43.43;99121.69;4508750;28;20056;-62
2022/11/16 00:13:48;;;;;;;1.60;1.20;;;;;;;20.92;43.55;99127.41;4508506;28;20076;-62
2022/11/16 00:15:59;;;;;;;1.45;1.30;;;;;;;20.92;43.11;99118.81;4511062;28;20593;-62
2022/11/16 00:18:09;;;;;;;1.40;1.30;;;;;;;20.88;43.22;99108.56;4508227;28;20058;-62
2022/11/16 00:20:19;;;;;;;1.40;1.27;;;;;;;20.92;43.41;99115.94;4518247;28;20026;-62
2022/11/16 00:22:30;;;;;;;1.80;1.30;;;;;;;20.90;43.53;99109.00;4508658;28;20042;-62
2022/11/16 00:24:40;;;;;;;1.50;1.40;;;;;;;20.92;43.49;99112.25;4508805;28;20037;-61
2022/11/16 00:26:53;;;;;;;1.40;1.30;;;;;;;20.92;43.33;99110.22;4517991;28;20421;-61
2022/11/16 00:29:03;;;;;;;1.27;1.17;;;;;;;20.91;43.33;99117.19;4508773;28;20038;-62
2022/11/16 00:31:14;;;;;;;1.48;1.20;;;;;;;20.92;43.42;99113.09;4510992;28;20041;-62
2022/11/16 00:33:24;;;;;;;1.75;1.20;;;;;;;20.91;43.57;99105.72;4518101;28;20040;-62
2022/11/16 00:35:38;;;;;;;1.58;1.30;;;;;;;20.88;43.42;99105.69;4509076;28;20069;-62
2022/11/16 00:37:50;;;;;;;1.40;1.15;;;;;;;20.92;43.52;99103.66;4507897;28;20531;-62
2022/11/16 00:40:00;;;;;;;1.50;1.40;;;;;;;20.90;43.35;99104.06;4509751;28;20089;-62
2022/11/16 00:42:11;;;;;;;1.48;1.38;;;;;;;20.90;43.85;99097.53;4508326;28;20512;-63
2022/11/16 00:44:21;;;;;;;1.40;1.30;;;;;;;20.90;43.55;99095.44;4500803;28;20510;-63
2022/11/16 00:46:32;;;;;;;1.60;1.40;;;;;;;20.90;43.39;99097.53;4509336;28;20490;-62
2022/11/16 00:48:42;;;;;;;1.38;1.10;;;;;;;20.88;43.67;99083.59;4509316;28;20108;-62
2022/11/16 00:50:53;;;;;;;1.30;1.20;;;;;;;20.90;43.35;99092.59;4508364;28;20029;-62
2022/11/16 00:53:06;;;;;;;1.45;1.30;;;;;;;20.91;43.58;99087.69;4509710;28;20030;-62
2022/11/16 00:55:16;;;;;;;1.98;1.60;;;;;;;20.88;43.59;99083.59;4517485;28;20041;-62
2022/11/16 00:57:27;;;;;;;2.22;1.45;;;;;;;20.90;43.53;99081.13;4510977;28;20037;-62
2022/11/16 00:59:37;;;;;;;1.48;1.20;;;;;;;20.89;43.45;99073.75;4508734;28;20034;-62
2022/11/16 01:01:48;;;;;;;1.75;1.30;;;;;;;20.89;43.53;99072.91;4507334;28;20037;-62
2022/11/16 01:03:58;;;;;;;1.55;1.30;;;;;;;20.89;43.60;99073.75;4515152;28;20041;-62
2022/11/16 01:06:11;;;;;;;2.22;1.45;;;;;;;20.90;43.42;99080.31;4509630;28;20037;-62
2022/11/16 01:08:21;;;;;;;1.50;1.38;;;;;;;20.87;43.33;99070.47;4516272;28;20653;-62
2022/11/16 01:10:32;;;;;;;1.45;1.35;;;;;;;20.91;43.20;99070.47;4509617;28;20107;-62
2022/11/16 01:12:44;;;;;;;2.22;1.50;;;;;;;20.87;43.48;99058.97;4506425;28;20041;-62
2022/11/16 01:14:55;;;;;;;1.77;1.40;;;;;;;20.88;43.28;99060.66;4507899;28;21043;-62
2022/11/16 01:17:07;;;;;;;2.13;1.25;;;;;;;20.89;43.33;99059.41;4511428;28;20042;-62
2022/11/16 01:19:17;;;;;;;1.48;1.20;;;;;;;20.88;43.59;99057.78;4508350;28;20029;-62
2022/11/16 01:21:27;;;;;;;3.03;1.25;;;;;;;20.89;43.70;99058.56;4509076;28;20034;-62
2022/11/16 01:23:38;;;;;;;1.67;1.30;;;;;;;20.88;43.36;99060.66;4508073;28;20550;-62
2022/11/16 01:25:56;;;;;;;1.35;1.25;;;;;;;20.90;43.25;99054.50;4511116;28;20435;-62
2022/11/16 01:28:06;;;;;;;1.65;1.30;;;;;;;20.88;43.36;99049.19;4508230;28;20029;-62
2022/11/16 01:30:26;;;;;;;1.40;1.30;;;;;;;20.88;43.36;99054.91;4508903;28;20126;-62
2022/11/16 01:32:44;;;;;;;1.50;1.40;;;;;;;20.85;43.56;99044.25;4508892;28;21022;-62
2022/11/16 01:34:54;;;;;;;1.60;1.30;;;;;;;20.85;43.32;99038.53;4508967;28;20107;-63
2022/11/16 01:37:09;;;;;;;1.75;1.30;;;;;;;20.84;43.31;99036.84;4510531;28;20509;-62
2022/11/16 01:39:23;;;;;;;1.90;1.38;;;;;;;20.82;43.51;99032.78;4514879;28;20034;-62
2022/11/16 01:41:39;;;;;;;1.40;1.30;;;;;;;20.86;43.63;99037.28;4513771;28;20588;-62
2022/11/16 01:43:53;;;;;;;1.42;1.33;;;;;;;20.85;43.50;99031.94;4516617;28;20125;-62
2022/11/16 01:46:05;;;;;;;1.73;1.33;;;;;;;20.85;43.54;99031.94;4515236;28;20177;-62
2022/11/16 01:48:24;;;;;;;1.40;1.30;;;;;;;20.87;43.32;99030.31;4516242;28;20514;-62
2022/11/16 01:50:36;;;;;;;1.67;1.30;;;;;;;20.85;43.46;99027.06;4522367;28;20029;-62
2022/11/16 01:52:56;;;;;;;1.92;1.40;;;;;;;20.83;43.23;99015.94;4506632;28;20030;-62
2022/11/16 01:55:09;;;;;;;1.48;1.35;;;;;;;20.83;43.24;99024.56;4507133;28;20907;-62
2022/11/16 01:57:36;;;;;;;1.65;1.40;;;;;;;20.85;43.13;99012.72;4516590;28;20064;-62
2022/11/16 01:59:54;;;;;;;1.40;1.30;;;;;;;20.83;43.33;99006.56;4517205;28;20762;-62
2022/11/16 02:02:06;;;;;;;1.70;1.47;;;;;;;20.84;43.30;99002.44;4516235;28;20041;-62
2022/11/16 02:04:18;;;;;;;1.45;1.30;;;;;;;20.83;43.40;98990.16;4507226;28;21428;-62
2022/11/16 02:07:06;;;;;;;1.40;1.30;;;;;;;20.85;43.31;98991.81;4510320;28;20091;-62
2022/11/16 02:09:54;;;;;;;1.35;1.20;;;;;;;20.84;43.31;98988.09;4507665;28;20053;-62
2022/11/16 02:12:36;;;;;;;1.55;1.30;;;;;;;20.83;43.39;98987.28;4516314;28;20041;-62
2022/11/16 02:15:15;;;;;;;1.67;1.35;;;;;;;20.80;42.95;98979.50;4508615;28;20548;-62
2022/11/16 02:17:55;;;;;;;2.03;1.38;;;;;;;20.83;43.07;98997.94;4509564;28;20092;-62
2022/11/16 02:20:23;;;;;;;1.80;1.40;;;;;;;20.84;42.92;98996.72;4516472;28;20123;-62
2022/11/16 02:22:53;;;;;;;2.03;1.40;;;;;;;20.82;43.24;98993.41;4506965;28;20092;-62
2022/11/16 02:25:19;;;;;;;1.30;1.20;;;;;;;20.81;43.28;98994.66;4522781;28;20037;-62
2022/11/16 02:28:00;;;;;;;1.50;1.20;;;;;;;20.83;42.98;98989.34;4517624;28;20940;-62
2022/11/16 02:30:11;;;;;;;1.92;1.40;;;;;;;20.79;43.32;98989.34;4517406;28;20041;-62
2022/11/16 02:32:41;;;;;;;1.48;1.30;;;;;;;20.79;43.29;98975.00;4515225;28;20037;-62
2022/11/16 02:35:06;;;;;;;1.40;1.30;;;;;;;20.82;43.08;98981.94;4508899;28;20766;-62
2022/11/16 02:37:21;;;;;;;1.40;1.30;;;;;;;20.82;43.27;98979.09;4517505;28;20144;-62
2022/11/16 02:39:33;;;;;;;1.60;1.30;;;;;;;20.82;43.17;98975.41;4507045;28;20068;-62
2022/11/16 02:41:47;;;;;;;1.58;1.38;;;;;;;20.79;42.82;98977.03;4490809;28;20205;-62
2022/11/16 02:44:13;;;;;;;1.55;1.30;;;;;;;20.83;43.02;98977.88;4504263;28;20033;-62
2022/11/16 02:46:47;;;;;;;1.70;1.23;;;;;;;20.81;43.25;98971.72;4515345;28;20041;-62
2022/11/16 02:49:00;;;;;;;1.42;1.20;;;;;;;20.80;43.10;98972.97;4510984;28;20033;-63
2022/11/16 02:51:12;;;;;;;1.60;1.23;;;;;;;20.79;42.88;98965.56;4515884;28;20067;-62
2022/11/16 02:53:24;;;;;;;1.60;1.27;;;;;;;20.76;42.96;98961.47;4507203;28;20073;-62
2022/11/16 02:55:36;;;;;;;1.50;1.33;;;;;;;20.80;42.87;98961.50;4508497;28;20060;-62
2022/11/16 02:57:52;;;;;;;1.40;1.30;;;;;;;20.80;42.88;98958.63;4509281;28;20034;-63
2022/11/16 03:00:05;;;;;;;1.57;1.30;;;;;;;20.77;43.15;98962.31;4517042;28;20230;-65
2022/11/16 03:02:34;;;;;;;1.98;1.38;;;;;;;20.79;42.90;98965.56;4506620;28;20030;-62
2022/11/16 03:04:51;;;;;;;1.30;1.10;;;;;;;20.78;43.07;98964.75;4516301;28;20886;-63
2022/11/16 03:07:05;;;;;;;1.50;1.40;;;;;;;20.78;43.15;98959.03;4516308;28;20076;-63
2022/11/16 03:09:25;;;;;;;1.88;1.30;;;;;;;20.76;43.12;98960.66;4507450;28;20140;-62
2022/11/16 03:12:01;;;;;;;1.70;1.48;;;;;;;20.78;43.10;98964.75;4514959;28;20116;-62
2022/11/16 03:14:19;;;;;;;1.65;1.45;;;;;;;20.77;43.34;98956.56;4506113;28;20041;-62
2022/11/16 03:16:40;;;;;;;1.40;1.20;;;;;;;20.77;43.30;98957.38;4508321;28;20022;-62
2022/11/16 03:18:54;;;;;;;1.67;1.40;;;;;;;20.75;43.33;98956.16;4505140;28;20671;-62
2022/11/16 03:21:17;;;;;;;1.50;1.40;;;;;;;20.76;43.43;98955.75;4504917;28;20057;-62
2022/11/16 03:23:28;;;;;;;1.30;1.17;;;;;;;20.66;43.14;98936.47;4506789;28;20042;-65
2022/11/16 03:25:51;;;;;;;1.70;1.38;;;;;;;20.75;43.03;98956.97;4504944;28;20041;-62
2022/11/16 03:28:03;;;;;;;1.30;1.20;;;;;;;20.77;43.54;98956.56;4515093;28;20163;-63
2022/11/16 03:30:22;;;;;;;1.30;1.20;;;;;;;20.77;43.35;98956.56;4513069;28;20099;-62
2022/11/16 03:32:43;;;;;;;1.55;1.27;;;;;;;20.74;43.39;98951.63;4517929;28;20029;-62
2022/11/16 03:35:00;;;;;;;1.48;1.38;;;;;;;20.73;43.37;98945.09;4517334;28;20111;-62
2022/11/16 03:37:13;;;;;;;1.40;1.20;;;;;;;20.74;43.39;98943.03;4517745;28;20029;-62
2022/11/16 03:39:35;;;;;;;1.65;1.42;;;;;;;20.75;43.49;98959.03;4518092;28;20524;-62
2022/11/16 03:41:48;;;;;;;1.80;1.50;;;;;;;20.71;43.31;98935.25;4518441;28;20037;-62
2022/11/16 03:43:59;;;;;;;1.83;1.58;;;;;;;20.74;43.38;98952.47;4510626;28;20032;-62
2022/11/16 03:46:11;;;;;;;1.60;1.50;;;;;;;20.74;43.49;98937.28;4509254;28;20030;-62
2022/11/16 03:48:23;;;;;;;1.70;1.40;;;;;;;20.75;43.51;98947.56;4518981;28;20033;-63
2022/11/16 03:50:34;;;;;;;1.60;1.50;;;;;;;20.73;43.61;98950.00;4525524;28;20196;-63
2022/11/16 03:52:45;;;;;;;1.95;1.63;;;;;;;20.72;43.46;98936.91;4509819;28;20044;-62
2022/11/16 03:54:57;;;;;;;2.00;1.80;;;;;;;20.73;43.83;98938.53;4511786;28;20106;-63
2022/11/16 03:57:14;;;;;;;1.70;1.60;;;;;;;20.73;43.50;98947.97;4507841;28;20030;-62
2022/11/16 03:59:27;;;;;;;2.25;1.40;;;;;;;20.72;43.63;98943.44;4511631;28;20041;-61
2022/11/16 04:01:38;;;;;;;1.77;1.60;;;;;;;20.71;43.74;98932.38;4517303;28;20040;-62
2022/11/16 04:03:50;;;;;;;2.22;1.60;;;;;;;20.73;43.67;98941.41;4518077;28;20623;-62
2022/11/16 04:25:59;;;;;;;1.90;1.70;;;;;;;20.70;43.68;98957.38;4519052;28;21024;-62
2022/11/16 04:28:12;;;;;;;1.95;1.70;;;;;;;20.69;43.93;98946.31;4508678;28;20053;-62
2022/11/16 04:30:24;;;;;;;2.15;1.75;;;;;;;20.70;43.62;98954.50;4518208;28;20580;-62
2022/11/16 04:37:48;;;;;;;2.00;1.70;;;;;;;20.69;43.91;98955.72;4509557;28;20911;-63
2022/11/16 04:40:02;;;;;;;1.98;1.75;;;;;;;20.69;43.69;98957.78;4518363;28;20037;-63
2022/11/16 04:42:16;;;;;;;2.22;1.80;;;;;;;20.69;43.71;98952.06;4518982;28;20736;-62
2022/11/16 04:47:05;;;;;;;2.00;1.80;;;;;;;20.69;44.06;98954.94;4508441;28;20768;-62
2022/11/16 04:47:05;;;;;;;1.67;1.55;;;;;;;20.70;43.98;98957.38;4511293;28;20085;-62
2022/11/16 04:49:16;;;;;;;1.75;1.60;;;;;;;20.68;43.82;98954.09;4518837;28;20291;-62
2022/11/16 04:51:27;;;;;;;1.70;1.60;;;;;;;20.68;44.18;98944.66;4510124;28;20076;-62
2022/11/16 04:53:37;;;;;;;2.15;1.67;;;;;;;20.66;44.29;98950.00;4517746;28;20129;-62
2022/11/16 04:55:57;;;;;;;2.17;1.75;;;;;;;20.66;43.99;98947.13;4509133;28;20836;-62
2022/11/16 04:58:07;;;;;;;2.08;1.83;;;;;;;20.66;43.78;98947.94;4512967;28;20041;-62
2022/11/16 05:00:18;;;;;;;2.80;2.00;;;;;;;20.66;43.83;98950.00;4516937;28;20033;-62
2022/11/16 05:02:28;;;;;;;2.10;1.90;;;;;;;20.67;44.29;98948.78;4509347;28;20053;-62
2022/11/16 05:04:43;;;;;;;2.00;1.80;;;;;;;20.67;44.13;98941.00;4510652;28;20580;-62
2022/11/16 05:06:54;;;;;;;1.88;1.63;;;;;;;20.67;44.00;98951.63;4518472;28;20620;-62
2022/11/16 05:09:05;;;;;;;2.20;1.77;;;;;;;20.66;44.24;98950.81;4494954;28;20134;-62
2022/11/16 05:11:16;;;;;;;2.40;1.80;;;;;;;20.67;44.21;98951.63;4511263;28;20573;-62
2022/11/16 05:13:26;;;;;;;1.70;1.60;;;;;;;20.65;44.18;98937.72;4511326;28;20038;-62
2022/11/16 05:15:37;;;;;;;1.90;1.70;;;;;;;20.68;44.14;98936.06;4511639;28;20046;-61
2022/11/16 05:17:49;;;;;;;1.77;1.60;;;;;;;20.65;44.34;98936.88;4509469;28;20021;-62
2022/11/16 05:22:37;;;;;;;1.77;1.60;;;;;;;20.65;44.08;98929.09;4507761;28;20034;-62
2022/11/16 05:24:48;;;;;;;1.95;1.63;;;;;;;20.62;44.03;98931.97;4508028;28;20042;-62
2022/11/16 05:27:02;;;;;;;1.77;1.65;;;;;;;20.66;43.91;98942.19;4509161;28;20072;-62
2022/11/16 05:29:12;;;;;;;2.25;1.73;;;;;;;20.64;43.99;98936.06;4500904;28;20045;-62
2022/11/16 05:31:23;;;;;;;1.55;1.45;;;;;;;20.62;43.96;98941.41;4509628;28;20113;-62
2022/11/16 05:33:33;;;;;;;1.60;1.50;;;;;;;20.64;44.08;98944.66;4509282;28;20034;-61
2022/11/16 05:35:44;;;;;;;1.85;1.73;;;;;;;20.63;44.14;98948.75;4506549;28;20450;-62
2022/11/16 05:37:54;;;;;;;2.00;1.60;;;;;;;20.63;44.22;98945.88;4517383;28;20133;-61
2022/11/16 05:40:06;;;;;;;1.50;1.40;;;;;;;20.62;44.41;98944.25;4500661;28;20084;-61
2022/11/16 05:42:24;;;;;;;1.77;1.50;;;;;;;20.60;43.95;98943.84;4501936;28;20124;-61
2022/11/16 05:44:35;;;;;;;1.83;1.50;;;;;;;20.64;44.04;98955.31;4507949;28;20034;-61
2022/11/16 05:46:46;;;;;;;1.60;1.30;;;;;;;20.62;44.09;98964.31;4517463;28;20033;-62
2022/11/16 05:48:56;;;;;;;1.58;1.48;;;;;;;20.64;44.02;98956.13;4509218;28;20033;-62
2022/11/16 05:51:07;;;;;;;1.67;1.50;;;;;;;20.64;44.08;98958.19;4510909;28;20033;-62
2022/11/16 05:53:18;;;;;;;1.65;1.45;;;;;;;20.60;44.18;98946.72;4508494;28;20077;-62
2022/11/16 05:55:28;;;;;;;1.77;1.23;;;;;;;20.58;44.63;98959.81;4509568;28;20505;-62
2022/11/16 05:57:39;;;;;;;1.75;1.40;;;;;;;20.60;44.40;98963.06;4511135;28;20068;-62
2022/11/16 05:59:50;;;;;;;1.30;1.20;;;;;;;20.60;44.45;98963.91;4508676;28;20030;-62
2022/11/16 06:02:02;;;;;;;1.27;1.17;;;;;;;20.58;44.87;98956.97;4507000;28;20036;-62
2022/11/16 06:04:13;;;;;;;1.05;0.95;;;;;;;20.62;44.58;98963.50;4511982;28;20962;-62
2022/11/16 06:06:23;;;;;;;1.45;1.25;;;;;;;20.60;44.72;98963.91;4515875;28;20033;-62
2022/11/16 06:08:35;;;;;;;1.98;1.00;;;;;;;20.60;44.52;98963.06;4510339;28;20036;-62
2022/11/16 06:10:49;;;;;;;0.95;0.88;;;;;;;20.61;44.50;98970.47;4508918;28;20789;-62
2022/11/16 06:13:00;;;;;;;0.88;0.88;;;;;;;20.60;44.75;98983.13;4510537;28;20797;-61
2022/11/16 06:15:11;;;;;;;1.40;1.00;;;;;;;20.58;44.39;98983.56;4511110;28;20653;-62
2022/11/16 06:17:22;;;;;;;1.00;0.90;;;;;;;20.59;44.27;98985.22;4512476;28;20083;-62
2022/11/16 06:19:34;;;;;;;1.45;1.08;;;;;;;20.60;44.36;98986.84;4494769;28;20022;-62
2022/11/16 06:21:44;;;;;;;1.08;0.90;;;;;;;20.59;44.31;98985.22;4508122;28;20034;-62
2022/11/16 06:24:01;;;;;;;0.80;0.80;;;;;;;20.60;44.63;98991.75;4506607;28;20648;-62
2022/11/16 06:26:12;;;;;;;0.80;0.80;;;;;;;20.59;44.33;98990.13;4505682;28;20034;-62
2022/11/16 06:28:23;;;;;;;0.77;0.75;;;;;;;20.54;44.52;98984.78;4498847;28;20037;-63
2022/11/16 06:30:34;;;;;;;0.63;0.63;;;;;;;20.60;44.86;98997.47;4506242;28;20038;-62
2022/11/16 06:32:45;;;;;;;0.70;0.70;;;;;;;20.56;44.75;98991.75;4516238;28;20804;-62
2022/11/16 06:34:56;;;;;;;0.60;0.60;;;;;;;20.55;44.55;98995.03;4509766;28;20687;-62
2022/11/16 06:37:07;;;;;;;0.57;0.57;;;;;;;20.59;44.85;99002.41;4509583;28;20061;-62
2022/11/16 06:39:18;;;;;;;0.50;0.50;;;;;;;20.53;44.63;98992.53;4506012;28;20077;-61
2022/11/16 06:41:29;;;;;;;0.70;0.60;;;;;;;20.59;44.70;99002.41;4505044;28;20172;-62
2022/11/16 06:43:39;;;;;;;0.60;0.60;;;;;;;20.58;44.82;99005.69;4514587;28;20061;-61
2022/11/16 06:45:53;;;;;;;0.60;0.60;;;;;;;20.58;44.50;99011.41;4509537;28;20029;-61
2022/11/16 06:48:04;;;;;;;0.60;0.60;;;;;;;20.54;44.74;99001.97;4508426;28;20074;-61
2022/11/16 06:50:18;;;;;;;0.60;0.60;;;;;;;20.57;44.64;99013.44;4509260;28;20036;-61
2022/11/16 06:52:29;;;;;;;0.75;0.60;;;;;;;20.54;44.77;99007.69;4509063;28;20033;-61
2022/11/16 06:54:40;;;;;;;0.82;0.80;;;;;;;20.56;44.91;99017.56;4498153;28;20037;-61
2022/11/16 06:56:50;;;;;;;0.70;0.70;;;;;;;20.55;44.76;99018.75;4521777;28;20398;-61
2022/11/16 06:59:00;;;;;;;0.60;0.60;;;;;;;20.54;44.91;99017.13;4505541;28;20507;-61
2022/11/16 07:01:12;;;;;;;0.57;0.57;;;;;;;20.57;44.83;99018.34;4513865;28;20064;-62
2022/11/16 07:03:25;;;;;;;0.65;0.63;;;;;;;20.52;44.89;99010.16;4513939;28;20124;-61
2022/11/16 07:05:39;;;;;;;0.75;0.63;;;;;;;20.56;44.63;99031.06;4514514;28;20078;-61
2022/11/16 07:07:54;;;;;;;0.70;0.70;;;;;;;20.54;44.61;99019.16;4515138;28;20115;-61
2022/11/16 07:10:05;;;;;;;0.60;0.60;;;;;;;20.55;44.81;99032.28;4519850;28;20033;-61
2022/11/16 07:12:15;;;;;;;0.60;0.60;;;;;;;20.55;44.70;99029.44;4521535;28;20030;-62
2022/11/16 07:14:27;;;;;;;0.52;0.52;;;;;;;20.54;44.67;99034.31;4507584;28;20085;-61
2022/11/16 07:16:37;;;;;;;0.60;0.60;;;;;;;20.53;44.72;99031.88;4498230;28;20539;-62
2022/11/16 07:18:48;;;;;;;0.65;0.60;;;;;;;20.54;44.73;99039.22;4507267;28;20034;-62
2022/11/16 07:21:11;;;;;;;0.65;0.65;;;;;;;20.54;44.51;99040.06;4510721;28;20120;-61
2022/11/16 07:23:22;;;;;;;1.13;0.63;;;;;;;20.54;44.73;99044.97;4498542;28;20656;-61
2022/11/16 07:25:33;;;;;;;0.60;0.60;;;;;;;20.52;44.88;99047.41;4510064;28;20085;-63
2022/11/16 07:27:45;;;;;;;0.60;0.60;;;;;;;20.55;44.95;99060.97;4515285;28;20076;-62
2022/11/16 07:29:55;;;;;;;0.70;0.60;;;;;;;20.51;44.66;99054.38;4510388;28;20641;-63
2022/11/16 07:32:18;;;;;;;0.80;0.63;;;;;;;20.51;44.85;99058.06;4505935;28;20192;-63
2022/11/16 07:34:52;;;;;;;0.65;0.65;;;;;;;20.54;44.75;99076.50;4514745;28;20096;-62
2022/11/16 07:37:03;;;;;;;0.60;0.60;;;;;;;20.50;44.90;99064.22;4510309;28;20076;-63
2022/11/16 07:39:13;;;;;;;0.70;0.65;;;;;;;20.52;45.09;99078.94;4508462;28;20063;-63
2022/11/16 07:41:24;;;;;;;0.60;0.60;;;;;;;20.53;44.72;99083.47;4513668;28;20109;-63
2022/11/16 07:43:55;;;;;;;1.02;0.75;;;;;;;20.51;45.09;99075.28;4508797;28;20042;-63
2022/11/16 07:46:16;;;;;;;0.60;0.60;;;;;;;20.50;45.23;99067.06;4508084;28;20814;-63
2022/11/16 07:48:26;;;;;;;0.73;0.60;;;;;;;20.47;45.27;99065.03;4506108;28;20108;-63
2022/11/16 07:51:16;;;;;;;0.68;0.68;;;;;;;20.52;45.59;99073.19;4506086;28;20046;-63
2022/11/16 07:53:34;;;;;;;0.70;0.70;;;;;;;20.53;45.30;99086.31;4498036;28;20038;-63
2022/11/16 07:55:52;;;;;;;0.80;0.70;;;;;;;20.52;45.58;99081.81;4511206;28;20713;-62
2022/11/16 07:58:02;;;;;;;0.70;0.70;;;;;;;20.51;45.34;99089.59;4507743;28;20141;-63
2022/11/16 08:00:13;;;;;;;0.68;0.68;;;;;;;20.51;45.59;99080.16;4522403;28;20610;-63
2022/11/16 08:02:23;;;;;;;0.70;0.70;;;;;;;20.48;45.57;99080.97;4505370;28;20487;-63
2022/11/16 08:04:37;;;;;;;0.60;0.60;;;;;;;20.47;45.84;99087.94;4509587;28;20037;-63
2022/11/16 08:06:50;;;;;;;0.80;0.70;;;;;;;20.48;45.66;99092.44;4505813;28;20034;-63
2022/11/16 08:09:01;;;;;;;1.10;0.60;;;;;;;20.50;45.68;99098.59;4522010;28;20651;-64
2022/11/16 08:11:13;;;;;;;0.80;0.70;;;;;;;20.49;45.75;99094.06;4509789;28;20083;-62
2022/11/16 08:13:23;;;;;;;0.73;0.60;;;;;;;20.49;45.58;99091.22;4507016;28;20088;-62
2022/11/16 08:15:34;;;;;;;0.70;0.70;;;;;;;20.50;45.74;99105.13;4508251;28;20080;-62
2022/11/16 08:17:48;;;;;;;1.02;0.70;;;;;;;20.48;45.97;99092.44;4518080;28;20608;-61
2022/11/16 08:19:59;;;;;;;0.77;0.70;;;;;;;20.49;45.91;99089.16;4517217;28;20037;-61
2022/11/16 08:22:09;;;;;;;0.63;0.63;;;;;;;20.49;46.10;99099.81;4511626;28;20038;-62
2022/11/16 08:24:22;;;;;;;0.90;0.70;;;;;;;20.45;45.91;99093.25;4517887;28;20040;-61
2022/11/16 08:26:33;;;;;;;0.60;0.60;;;;;;;20.44;46.04;99085.84;4512652;28;20040;-61
2022/11/16 08:28:52;;;;;;;1.10;0.70;;;;;;;20.49;45.92;99099.81;4519046;28;20033;-62
2022/11/16 08:31:19;;;;;;;0.50;0.50;;;;;;;20.50;46.15;99101.47;4524347;28;20056;-61
2022/11/16 08:33:32;;;;;;;0.75;0.70;;;;;;;20.48;45.92;99103.91;4514117;28;20080;-61
2022/11/16 08:35:42;;;;;;;0.70;0.60;;;;;;;20.46;46.09;99092.84;4509277;28;20050;-62
2022/11/16 08:37:53;;;;;;;0.70;0.60;;;;;;;20.49;46.41;99094.06;4511914;28;20065;-61
2022/11/16 08:40:04;;;;;;;0.60;0.60;;;;;;;20.45;46.34;99090.38;4518369;28;20065;-61
2022/11/16 08:42:20;;;;;;;0.70;0.70;;;;;;;20.47;46.31;99096.53;4517143;28;20042;-62
2022/11/16 08:44:32;;;;;;;0.70;0.60;;;;;;;20.49;46.81;99102.66;4514617;28;20033;-60
2022/11/16 08:46:47;;;;;;;0.57;0.57;;;;;;;20.48;46.35;99104.75;4512672;28;20033;-61
2022/11/16 08:49:14;;;;;;;0.50;0.50;;;;;;;20.47;46.62;99102.28;4511603;28;20071;-61
2022/11/16 08:51:25;;;;;;;0.50;0.50;;;;;;;20.47;46.42;99108.81;4506374;28;20076;-61
2022/11/16 08:53:46;;;;;;;0.70;0.60;;;;;;;20.47;46.85;99113.75;4510239;28;20029;-61
2022/11/16 08:56:05;;;;;;;0.60;0.60;;;;;;;20.44;46.65;99114.53;4523331;28;20943;-61
2022/11/16 08:58:15;;;;;;;0.60;0.50;;;;;;;20.44;46.92;99105.91;4511542;28;20034;-61
2022/11/16 09:00:26;;;;;;;0.65;0.65;;;;;;;20.42;46.79;99112.06;4511719;28;20477;-61
2022/11/16 09:02:37;;;;;;;1.33;0.60;;;;;;;20.47;47.26;99119.47;4509030;28;20043;-61
2022/11/16 09:04:48;;;;;;;0.50;0.50;;;;;;;20.46;47.57;99117.81;4508278;28;20592;-61
2022/11/16 09:06:58;;;;;;;0.55;0.55;;;;;;;20.44;47.84;99120.25;4508161;28;20101;-61
2022/11/16 09:09:09;;;;;;;0.47;0.47;;;;;;;20.48;48.16;99126.84;4508421;28;20041;-61
2022/11/16 09:11:22;;;;;;;0.40;0.40;;;;;;;20.47;48.07;99130.94;4508948;28;20057;-62
2022/11/16 09:13:32;;;;;;;0.40;0.40;;;;;;;20.46;48.27;99132.97;4508112;28;20038;-62
2022/11/16 09:15:43;;;;;;;0.47;0.47;;;;;;;20.49;48.33;99134.19;4509495;28;20086;-62
2022/11/16 09:17:54;;;;;;;0.70;0.50;;;;;;;20.47;48.07;99130.94;4506974;28;20125;-61
2022/11/16 09:20:05;;;;;;;0.50;0.50;;;;;;;20.45;48.14;99136.25;4507628;28;20022;-61
2022/11/16 09:22:16;;;;;;;0.40;0.40;;;;;;;20.47;48.06;99139.53;4508685;28;20048;-62
2022/11/16 09:24:26;;;;;;;1.75;0.45;;;;;;;20.48;47.92;99147.72;4507577;28;20034;-62
2022/11/16 09:26:37;;;;;;;0.95;0.40;;;;;;;20.48;47.36;99144.03;4511279;28;20030;-61
2022/11/16 09:28:54;;;;;;;1.00;0.50;;;;;;;20.47;47.63;99148.13;4513644;28;20037;-62
2022/11/16 09:31:05;;;;;;;1.25;0.50;;;;;;;20.48;47.20;99146.91;4504994;28;20129;-61
2022/11/16 09:33:16;;;;;;;1.02;0.55;;;;;;;20.49;47.27;99148.53;4508161;28;20113;-61
2022/11/16 09:35:26;;;;;;;0.38;0.38;;;;;;;20.48;46.62;99152.63;4509586;28;20056;-63
2022/11/16 09:37:37;;;;;;;0.55;0.40;;;;;;;20.48;46.86;99166.97;4509441;28;20049;-63
2022/11/16 09:39:47;;;;;;;1.08;0.40;;;;;;;20.48;46.94;99164.09;4509165;28;20038;-62
2022/11/16 09:42:12;;;;;;;0.65;0.40;;;;;;;20.49;46.89;99168.59;4508773;28;20061;-62
2022/11/16 09:44:41;;;;;;;0.52;0.50;;;;;;;20.49;47.05;99162.84;4515517;28;20750;-63
2022/11/16 09:46:56;;;;;;;0.45;0.40;;;;;;;20.48;47.32;99166.97;4507328;28;20792;-62
2022/11/16 09:49:14;;;;;;;0.70;0.50;;;;;;;20.41;47.02;99152.59;4509116;28;20037;-63
2022/11/16 09:51:28;;;;;;;0.47;0.47;;;;;;;20.50;46.86;99170.25;4507656;28;20037;-62
2022/11/16 09:53:43;;;;;;;0.82;0.60;;;;;;;20.50;46.44;99167.38;4515773;28;20037;-62
2022/11/16 09:55:59;;;;;;;0.95;0.57;;;;;;;20.51;46.34;99174.75;4507908;28;20131;-63
2022/11/16 09:58:22;;;;;;;1.10;0.77;;;;;;;20.51;46.17;99177.63;4516447;28;20572;-63
2022/11/16 10:00:34;;;;;;;1.45;0.60;;;;;;;20.50;46.01;99185.38;4508141;28;20034;-63
2022/11/16 10:02:54;;;;;;;1.25;0.73;;;;;;;20.47;46.31;99171.06;4507923;28;20083;-63
2022/11/16 10:05:20;;;;;;;1.20;0.60;;;;;;;20.52;45.91;99180.09;4508722;28;20044;-63
2022/11/16 10:07:40;;;;;;;1.38;0.60;;;;;;;20.49;45.20;99166.56;4509147;28;20033;-63
2022/11/16 10:09:51;;;;;;;0.60;0.40;;;;;;;20.51;45.48;99161.25;4508442;28;20033;-63
2022/11/16 10:12:16;;;;;;;0.63;0.50;;;;;;;20.50;45.19;99162.47;4509161;28;20029;-63
2022/11/16 10:14:32;;;;;;;0.85;0.50;;;;;;;20.52;45.32;99168.63;4509039;28;20088;-63
2022/11/16 10:16:54;;;;;;;0.90;0.50;;;;;;;20.53;45.08;99169.44;4515843;28;20124;-63
2022/11/16 10:19:26;;;;;;;0.77;0.50;;;;;;;20.53;44.85;99166.59;4507020;28;20041;-63
2022/11/16 10:22:04;;;;;;;0.70;0.60;;;;;;;20.53;44.91;99163.72;4508178;28;20049;-63
2022/11/16 10:24:32;;;;;;;0.50;0.40;;;;;;;20.54;44.89;99165.34;4508223;28;20062;-64
2022/11/16 10:27:07;;;;;;;1.23;0.63;;;;;;;20.54;44.63;99159.63;4509586;28;20550;-63
2022/11/16 10:29:27;;;;;;;0.75;0.50;;;;;;;20.55;44.80;99155.53;4508917;28;20478;-63
2022/11/16 10:31:55;;;;;;;0.70;0.50;;;;;;;20.54;44.17;99151.84;4507312;28;20056;-63
2022/11/16 10:34:07;;;;;;;1.52;0.50;;;;;;;20.54;44.35;99156.75;4507937;28;20116;-63
2022/11/16 10:36:20;;;;;;;1.33;0.60;;;;;;;20.53;44.29;99158.00;4507613;28;20038;-63
2022/11/16 10:38:32;;;;;;;0.70;0.50;;;;;;;20.54;43.94;99156.75;4507671;28;20033;-63
2022/11/16 10:41:05;;;;;;;0.65;0.60;;;;;;;20.54;43.76;99153.88;4508913;28;20038;-63
2022/11/16 10:43:19;;;;;;;0.57;0.50;;;;;;;20.55;43.78;99155.53;4508389;28;20662;-64
2022/11/16 10:46:07;;;;;;;1.63;0.40;;;;;;;20.55;43.66;99156.34;4507321;28;21078;-63
2022/11/16 10:48:51;;;;;;;0.83;0.50;;;;;;;20.56;43.58;99160.03;4507291;28;20532;-65
2022/11/16 10:51:07;;;;;;;0.90;0.60;;;;;;;20.56;43.99;99154.31;4508941;28;20037;-63
2022/11/16 10:53:28;;;;;;;1.40;0.70;;;;;;;20.57;43.94;99161.69;4506847;28;20156;-63
2022/11/16 10:55:38;;;;;;;0.60;0.50;;;;;;;20.56;44.06;99152.28;4508336;28;20079;-63
2022/11/16 10:57:55;;;;;;;1.45;0.52;;;;;;;20.57;44.05;99147.34;4508492;28;20026;-63
2022/11/16 11:00:10;;;;;;;1.10;0.60;;;;;;;20.57;44.06;99153.91;4509044;28;20133;-63
2022/11/16 11:02:36;;;;;;;1.00;0.50;;;;;;;20.56;44.19;99149.41;4507822;28;20049;-64
2022/11/16 11:05:07;;;;;;;1.65;0.60;;;;;;;20.58;44.31;99161.28;4506272;28;20056;-64